createdAt,value
2022-12-06T00:01:30.150Z,100502.18
2022-12-06T00:04:00.710Z,100496.06
2022-12-06T00:06:31.424Z,100499.30
2022-12-06T00:09:00.191Z,100499.71
2022-12-06T00:11:33.261Z,100495.13
2022-12-06T00:14:04.232Z,100486.56
2022-12-06T00:16:32.982Z,100486.53
2022-12-06T00:19:01.626Z,100492.06
2022-12-06T00:21:36.918Z,100489.64
2022-12-06T00:24:13.011Z,100492.45
2022-12-06T00:26:43.075Z,100485.67
2022-12-06T00:29:20.101Z,100483.09
2022-12-06T00:31:48.145Z,100482.20
2022-12-06T00:34:15.724Z,100479.60
2022-12-06T00:36:43.568Z,100478.03
2022-12-06T00:39:14.422Z,100468.64
2022-12-06T00:41:42.851Z,100467.05
2022-12-06T00:44:11.230Z,100463.37
2022-12-06T00:46:39.436Z,100457.67
2022-12-06T00:49:08.372Z,100443.21
2022-12-06T00:51:37.185Z,100435.88
2022-12-06T00:54:06.165Z,100438.44
2022-12-06T00:56:35.915Z,100436.80
2022-12-06T00:59:04.862Z,100440.55
2022-12-06T01:01:34.733Z,100444.86
2022-12-06T01:04:05.149Z,100432.45
2022-12-06T01:06:34.704Z,100429.31
2022-12-06T01:09:05.691Z,100426.66
2022-12-06T01:11:33.410Z,100432.38
2022-12-06T01:14:01.424Z,100434.95
2022-12-06T01:16:30.596Z,100417.33
2022-12-06T01:19:01.716Z,100409.98
2022-12-06T01:21:29.714Z,100404.26
2022-12-06T01:23:57.483Z,100395.58
2022-12-06T01:26:27.374Z,100393.30
2022-12-06T01:28:55.006Z,100402.48
2022-12-06T01:31:22.702Z,100408.70
2022-12-06T01:33:50.716Z,100403.11
2022-12-06T01:36:24.244Z,100392.97
2022-12-06T01:38:57.100Z,100384.95
2022-12-06T01:41:26.485Z,100372.91
2022-12-06T01:43:55.683Z,100365.93
2022-12-06T01:46:33.881Z,100356.50
2022-12-06T01:49:13.332Z,100348.64
2022-12-06T01:51:45.768Z,100334.39
2022-12-06T01:54:15.968Z,100327.08
2022-12-06T01:56:44.097Z,100320.42
2022-12-06T01:59:12.568Z,100323.48
2022-12-06T02:01:40.743Z,100318.21
2022-12-06T02:04:09.113Z,100320.41
2022-12-06T02:06:37.598Z,100332.88
2022-12-06T02:09:08.044Z,100337.14
2022-12-06T02:11:36.224Z,100327.04
2022-12-06T02:14:09.077Z,100341.08
2022-12-06T02:17:01.491Z,100375.58
2022-12-06T02:19:57.585Z,100419.51
2022-12-06T02:22:36.875Z,100409.18
2022-12-06T02:25:22.114Z,100387.98
2022-12-06T02:28:11.520Z,100397.35
2022-12-06T02:30:59.575Z,100394.88
2022-12-06T02:33:58.009Z,100388.94
2022-12-06T02:36:44.057Z,100392.20
2022-12-06T02:39:18.778Z,100397.41
2022-12-06T02:41:54.775Z,100393.44
2022-12-06T02:44:32.274Z,100401.60
2022-12-06T02:47:02.294Z,100410.64
2022-12-06T02:49:33.463Z,100415.64
2022-12-06T02:52:01.836Z,100406.45
2022-12-06T02:54:29.958Z,100410.80
2022-12-06T02:56:57.574Z,100405.06
2022-12-06T02:59:25.155Z,100401.07
2022-12-06T03:01:57.257Z,100390.45
2022-12-06T03:05:17.674Z,100393.21
2022-12-06T03:07:47.001Z,100383.67
2022-12-06T03:10:20.422Z,100364.63
2022-12-06T03:13:16.061Z,100342.73
2022-12-06T03:15:57.004Z,100341.46
2022-12-06T03:18:41.631Z,100339.89
2022-12-06T03:21:15.000Z,100362.79
2022-12-06T03:23:48.069Z,100359.95
2022-12-06T03:26:20.879Z,100340.86
2022-12-06T03:28:52.962Z,100318.43
2022-12-06T03:31:20.871Z,100292.78
2022-12-06T03:34:23.616Z,100282.98
2022-12-06T03:36:53.209Z,100287.82
2022-12-06T03:39:33.747Z,100301.17
2022-12-06T03:42:01.724Z,100315.16
2022-12-06T03:44:29.770Z,100304.30
2022-12-06T03:47:16.440Z,100303.24
2022-12-06T03:50:08.729Z,100297.66
2022-12-06T03:52:38.136Z,100286.71
2022-12-06T03:55:06.340Z,100294.33
2022-12-06T03:57:35.309Z,100282.31
2022-12-06T04:00:03.612Z,100275.89
2022-12-06T04:02:31.211Z,100275.37
2022-12-06T04:04:58.869Z,100267.73
2022-12-06T04:07:26.489Z,100270.33
2022-12-06T04:09:54.175Z,100275.70
2022-12-06T04:12:23.620Z,100281.07
2022-12-06T04:14:51.190Z,100275.12
2022-12-06T04:17:18.775Z,100267.79
2022-12-06T04:19:51.794Z,100269.18
2022-12-06T04:22:19.708Z,100267.41
2022-12-06T04:24:47.384Z,100254.55
2022-12-06T04:27:14.989Z,100264.94
2022-12-06T04:29:42.550Z,100271.85
2022-12-06T04:32:10.117Z,100275.27
2022-12-06T04:34:37.697Z,100272.31
2022-12-06T04:37:05.656Z,100275.60
2022-12-06T04:39:33.508Z,100279.73
2022-12-06T04:42:01.174Z,100316.95
2022-12-06T04:44:28.845Z,100346.29
2022-12-06T04:46:56.463Z,100333.46
2022-12-06T04:49:24.072Z,100328.70
2022-12-06T04:51:51.925Z,100328.48
2022-12-06T04:54:21.256Z,100326.48
2022-12-06T04:56:48.965Z,100332.74
2022-12-06T04:59:16.897Z,100331.19
2022-12-06T05:01:44.696Z,100330.53
2022-12-06T05:04:12.396Z,100330.44
2022-12-06T05:06:40.087Z,100334.70
2022-12-06T05:09:07.750Z,100331.29
2022-12-06T05:11:35.370Z,100330.19
2022-12-06T05:14:03.227Z,100322.33
2022-12-06T05:16:30.979Z,100312.13
2022-12-06T05:18:58.697Z,100310.61
2022-12-06T05:21:26.347Z,100309.09
2022-12-06T05:23:55.034Z,100303.92
2022-12-06T05:26:27.934Z,100295.14
2022-12-06T05:28:56.808Z,100300.21
2022-12-06T05:31:25.569Z,100307.38
2022-12-06T05:33:53.373Z,100316.41
2022-12-06T05:36:24.252Z,100323.04
2022-12-06T05:38:52.847Z,100325.46
2022-12-06T05:41:22.286Z,100326.52
2022-12-06T05:43:50.042Z,100314.04
2022-12-06T05:46:18.283Z,100309.20
2022-12-06T05:48:46.298Z,100313.58
2022-12-06T05:51:14.023Z,100310.88
2022-12-06T05:53:41.577Z,100312.30
2022-12-06T05:56:11.691Z,100311.45
2022-12-06T05:58:39.823Z,100314.13
2022-12-06T06:01:08.180Z,100315.19
2022-12-06T06:03:36.530Z,100301.66
2022-12-06T06:06:05.136Z,100304.86
2022-12-06T06:08:33.124Z,100301.61
2022-12-06T06:11:01.411Z,100299.30
2022-12-06T06:13:29.007Z,100296.66
2022-12-06T06:15:56.654Z,100291.96
2022-12-06T06:18:24.390Z,100280.14
2022-12-06T06:20:54.972Z,100274.61
2022-12-06T06:23:22.750Z,100269.07
2022-12-06T06:25:50.461Z,100273.25
2022-12-06T06:28:18.923Z,100282.79
2022-12-06T06:30:47.023Z,100278.94
2022-12-06T06:33:15.523Z,100271.98
2022-12-06T06:35:43.448Z,100267.14
2022-12-06T06:38:11.085Z,100264.36
2022-12-06T06:40:38.670Z,100261.44
2022-12-06T06:43:06.266Z,100265.97
2022-12-06T06:45:34.098Z,100266.66
2022-12-06T06:48:01.747Z,100267.48
2022-12-06T06:50:29.338Z,100266.91
2022-12-06T06:52:56.984Z,100262.41
2022-12-06T06:55:24.668Z,100262.42
2022-12-06T06:57:52.269Z,100262.08
2022-12-06T07:00:20.161Z,100258.60
2022-12-06T07:02:47.827Z,100256.96
2022-12-06T07:05:15.544Z,100262.55
2022-12-06T07:07:43.200Z,100260.98
2022-12-06T07:10:11.183Z,100260.74
2022-12-06T07:12:39.212Z,100256.16
2022-12-06T07:15:07.478Z,100251.98
2022-12-06T07:17:35.074Z,100254.75
2022-12-06T07:20:03.376Z,100261.36
2022-12-06T07:22:31.187Z,100266.73
2022-12-06T07:24:58.805Z,100261.16
2022-12-06T07:27:26.774Z,100257.48
2022-12-06T07:29:54.360Z,100257.00
2022-12-06T07:32:21.917Z,100262.04
2022-12-06T07:34:49.650Z,100277.47
2022-12-06T07:37:17.287Z,100275.15
2022-12-06T07:39:44.938Z,100269.86
2022-12-06T07:42:12.652Z,100271.38
2022-12-06T07:44:40.310Z,100270.17
2022-12-06T07:47:07.908Z,100268.06
2022-12-06T07:49:35.665Z,100262.29
2022-12-06T07:52:03.359Z,100256.52
2022-12-06T07:54:31.016Z,100253.60
2022-12-06T07:56:58.633Z,100248.77
2022-12-06T07:59:27.016Z,100250.89
2022-12-06T08:01:55.009Z,100249.25
2022-12-06T08:04:22.831Z,100251.79
2022-12-06T08:06:50.494Z,100256.34
2022-12-06T08:09:18.200Z,100252.36
2022-12-06T08:11:46.048Z,100258.86
2022-12-06T08:14:13.833Z,100269.00
2022-12-06T08:16:42.086Z,100270.27
2022-12-06T08:19:12.421Z,100269.84
2022-12-06T08:21:40.141Z,100270.84
2022-12-06T08:24:07.799Z,100270.95
2022-12-06T08:26:35.402Z,100269.44
2022-12-06T08:29:04.121Z,100273.67
2022-12-06T08:31:32.379Z,100279.42
2022-12-06T08:34:00.644Z,100283.08
2022-12-06T08:36:28.385Z,100286.84
2022-12-06T08:38:58.461Z,100290.23
2022-12-06T08:41:26.437Z,100295.41
2022-12-06T08:43:54.872Z,100294.73
2022-12-06T08:46:22.705Z,100298.20
2022-12-06T08:48:50.506Z,100288.83
2022-12-06T08:51:18.464Z,100283.80
2022-12-06T08:53:46.160Z,100285.41
2022-12-06T08:56:13.934Z,100288.77
2022-12-06T08:58:41.490Z,100290.91
2022-12-06T09:01:15.087Z,100291.31
2022-12-06T09:03:42.785Z,100291.02
2022-12-06T09:06:10.947Z,100280.45
2022-12-06T09:08:38.921Z,100278.44
2022-12-06T09:11:07.907Z,100279.41
2022-12-06T09:13:37.000Z,100278.91
2022-12-06T09:16:09.937Z,100278.95
2022-12-06T09:18:38.116Z,100276.59
2022-12-06T09:21:08.549Z,100278.58
2022-12-06T09:23:37.289Z,100276.71
2022-12-06T09:26:06.691Z,100275.90
2022-12-06T09:28:36.796Z,100272.06
2022-12-06T09:31:05.897Z,100273.39
2022-12-06T09:33:33.922Z,100277.71
2022-12-06T09:36:06.156Z,100276.07
2022-12-06T09:38:37.571Z,100267.77
2022-12-06T09:41:17.364Z,100275.05
2022-12-06T09:44:10.365Z,100270.52
2022-12-06T09:47:10.190Z,100270.73
2022-12-06T09:49:50.045Z,100268.35
2022-12-06T09:52:23.537Z,100270.02
2022-12-06T09:55:00.257Z,100272.18
2022-12-06T09:57:58.627Z,100274.20
2022-12-06T10:00:31.184Z,100274.61
2022-12-06T10:03:25.157Z,100273.39
2022-12-06T10:06:00.309Z,100274.96
2022-12-06T10:08:46.321Z,100266.03
2022-12-06T10:11:16.700Z,100264.84
2022-12-06T10:13:44.222Z,100259.23
2022-12-06T10:16:44.103Z,100257.66
2022-12-06T10:19:54.856Z,100252.25
2022-12-06T10:22:41.456Z,100242.42
2022-12-06T10:25:24.450Z,100238.87
2022-12-06T10:27:54.936Z,100237.09
2022-12-06T10:30:22.560Z,100233.27
2022-12-06T10:33:13.418Z,100228.45
2022-12-06T10:35:48.844Z,100226.90
2022-12-06T10:38:30.348Z,100211.11
2022-12-06T10:41:03.816Z,100199.67
2022-12-06T10:44:01.663Z,100186.30
2022-12-06T10:46:42.049Z,100186.97
2022-12-06T10:49:12.622Z,100188.98
2022-12-06T10:52:01.604Z,100191.73
2022-12-06T10:54:58.423Z,100189.00
2022-12-06T10:57:50.589Z,100192.97
2022-12-06T11:00:22.514Z,100185.84
2022-12-06T11:03:01.617Z,100181.42
2022-12-06T11:05:38.048Z,100180.90
2022-12-06T11:08:21.536Z,100184.42
2022-12-06T11:10:50.519Z,100183.33
2022-12-06T11:13:40.947Z,100179.44
2022-12-06T11:16:22.106Z,100181.73
2022-12-06T11:18:51.136Z,100181.52
2022-12-06T11:21:43.156Z,100186.04
2022-12-06T11:24:21.312Z,100182.83
2022-12-06T11:27:02.084Z,100180.54
2022-12-06T11:29:29.661Z,100174.08
2022-12-06T11:32:03.476Z,100173.79
2022-12-06T11:34:33.927Z,100173.34
2022-12-06T11:37:02.878Z,100167.17
2022-12-06T11:39:31.689Z,100165.10
2022-12-06T11:42:03.221Z,100161.04
2022-12-06T11:44:47.904Z,100158.36
2022-12-06T11:47:20.859Z,100152.90
2022-12-06T11:49:51.424Z,100149.86
2022-12-06T11:52:41.157Z,100150.71
2022-12-06T11:55:31.873Z,100149.73
2022-12-06T11:58:06.760Z,100147.80
2022-12-06T12:00:34.808Z,100149.20
2022-12-06T12:03:02.737Z,100153.44
2022-12-06T12:05:33.004Z,100158.12
2022-12-06T12:08:06.231Z,100161.11
2022-12-06T12:10:37.545Z,100170.24
2022-12-06T12:13:11.017Z,100173.77
2022-12-06T12:15:47.585Z,100179.35
2022-12-06T12:18:37.730Z,100187.16
2022-12-06T12:21:07.049Z,100195.35
2022-12-06T12:23:38.425Z,100198.25
2022-12-06T12:26:16.685Z,100197.64
2022-12-06T12:29:01.579Z,100203.77
2022-12-06T12:31:29.248Z,100205.60
2022-12-06T12:34:14.724Z,100208.88
2022-12-06T12:36:48.418Z,100213.90
2022-12-06T12:39:31.393Z,100210.25
2022-12-06T12:41:59.395Z,100203.98
2022-12-06T12:44:37.992Z,100205.00
2022-12-06T12:47:17.139Z,100200.65
2022-12-06T12:50:00.732Z,100205.91
2022-12-06T12:52:37.813Z,100206.05
2022-12-06T12:55:16.620Z,100202.34
2022-12-06T12:57:49.988Z,100208.55
2022-12-06T13:00:19.157Z,100204.98
2022-12-06T13:03:00.415Z,100209.73
2022-12-06T13:05:33.868Z,100210.17
2022-12-06T13:08:06.802Z,100202.38
2022-12-06T13:10:38.069Z,100203.66
2022-12-06T13:13:14.606Z,100203.55
2022-12-06T13:15:46.251Z,100202.15
2022-12-06T13:18:19.629Z,100197.11
2022-12-06T13:20:49.500Z,100195.25
2022-12-06T13:23:20.604Z,100195.64
2022-12-06T13:26:09.238Z,100196.52
2022-12-06T13:28:43.333Z,100195.66
2022-12-06T13:31:16.614Z,100193.92
2022-12-06T13:33:51.172Z,100199.66
2022-12-06T13:36:20.618Z,100198.92
2022-12-06T13:38:48.329Z,100203.03
2022-12-06T13:41:35.634Z,100198.38
2022-12-06T13:44:03.226Z,100197.23
2022-12-06T13:46:32.117Z,100199.58
2022-12-06T13:48:59.759Z,100196.55
2022-12-06T13:51:33.428Z,100193.21
2022-12-06T13:54:04.008Z,100197.52
2022-12-06T13:56:34.470Z,100201.44
2022-12-06T13:59:25.028Z,100198.59
2022-12-06T14:01:53.858Z,100204.80
2022-12-06T14:04:24.532Z,100206.20
2022-12-06T14:06:53.751Z,100206.87
2022-12-06T14:09:22.419Z,100201.02
2022-12-06T14:11:50.679Z,100202.31
2022-12-06T14:14:20.813Z,100205.70
2022-12-06T14:16:51.920Z,100206.80
2022-12-06T14:19:21.978Z,100199.70
2022-12-06T14:22:02.179Z,100194.87
2022-12-06T14:24:35.828Z,100194.39
2022-12-06T14:27:10.084Z,100191.13
2022-12-06T14:29:38.764Z,100197.11
2022-12-06T14:32:06.830Z,100198.80
2022-12-06T14:34:36.362Z,100200.48
2022-12-06T14:37:21.621Z,100203.73
2022-12-06T14:39:53.067Z,100202.48
2022-12-06T14:42:20.675Z,100201.87
2022-12-06T14:44:51.164Z,100205.98
2022-12-06T14:47:21.365Z,100206.96
2022-12-06T14:49:54.612Z,100203.92
2022-12-06T14:52:30.368Z,100207.18
2022-12-06T14:55:16.212Z,100206.24
2022-12-06T14:57:49.894Z,100204.86
2022-12-06T15:00:26.996Z,100209.27
2022-12-06T15:03:21.828Z,100209.20
2022-12-06T15:05:52.815Z,100206.13
2022-12-06T15:08:26.301Z,100208.65
2022-12-06T15:10:57.315Z,100210.49
2022-12-06T15:13:24.929Z,100210.41
2022-12-06T15:16:04.106Z,100211.06
2022-12-06T15:18:35.573Z,100211.90
2022-12-06T15:21:06.677Z,100212.18
2022-12-06T15:23:34.304Z,100214.89
2022-12-06T15:26:03.863Z,100216.24
2022-12-06T15:28:31.607Z,100213.96
2022-12-06T15:30:59.288Z,100216.88
2022-12-06T15:33:26.952Z,100218.53
2022-12-06T15:35:54.638Z,100220.86
2022-12-06T15:38:22.212Z,100223.95
2022-12-06T15:40:51.817Z,100230.66
2022-12-06T15:43:33.920Z,100233.61
2022-12-06T15:46:03.603Z,100232.20
2022-12-06T15:48:33.291Z,100234.61
2022-12-06T15:51:00.990Z,100235.25
2022-12-06T15:53:28.965Z,100236.30
2022-12-06T15:55:56.664Z,100235.94
2022-12-06T15:58:24.417Z,100238.04
2022-12-06T16:00:52.133Z,100240.48
2022-12-06T16:03:19.808Z,100244.09
2022-12-06T16:05:47.434Z,100240.92
2022-12-06T16:08:15.055Z,100240.34
2022-12-06T16:11:10.702Z,100239.43
2022-12-06T16:13:30.347Z,100239.38
2022-12-06T16:15:58.000Z,100241.23
2022-12-06T16:18:25.729Z,100237.52
2022-12-06T16:20:53.390Z,100243.20
2022-12-06T16:23:25.537Z,100239.67
2022-12-06T16:25:53.497Z,100245.52
2022-12-06T16:28:21.559Z,100241.46
2022-12-06T16:30:49.178Z,100245.29
2022-12-06T16:33:19.675Z,100249.26
2022-12-06T16:35:47.652Z,100247.66
2022-12-06T16:38:17.701Z,100247.63
2022-12-06T16:40:46.235Z,100246.96
2022-12-06T16:43:13.819Z,100251.09
2022-12-06T16:45:44.154Z,100252.21
2022-12-06T16:48:19.658Z,100247.10
2022-12-06T16:50:47.660Z,100249.30
2022-12-06T16:53:15.320Z,100249.60
2022-12-06T16:55:43.967Z,100247.82
2022-12-06T16:58:11.695Z,100251.94
2022-12-06T17:00:39.564Z,100252.09
2022-12-06T17:03:10.239Z,100248.77
2022-12-06T17:05:37.968Z,100251.34
2022-12-06T17:08:05.708Z,100255.64
2022-12-06T17:10:33.361Z,100256.67
2022-12-06T17:13:00.955Z,100265.02
2022-12-06T17:15:28.742Z,100257.74
2022-12-06T17:17:56.409Z,100258.30
2022-12-06T17:20:24.095Z,100258.11
2022-12-06T17:22:51.711Z,100257.52
2022-12-06T17:25:19.466Z,100259.48
2022-12-06T17:27:47.121Z,100255.70
2022-12-06T17:30:16.274Z,100256.26
2022-12-06T17:32:44.997Z,100257.56
2022-12-06T17:35:12.982Z,100257.13
2022-12-06T17:37:40.594Z,100252.54
2022-12-06T17:40:08.827Z,100254.08
2022-12-06T17:42:36.415Z,100251.16
2022-12-06T17:45:04.875Z,100248.13
2022-12-06T17:47:32.842Z,100249.11
2022-12-06T17:50:01.004Z,100246.67
2022-12-06T17:52:28.997Z,100251.60
2022-12-06T17:54:56.661Z,100251.16
2022-12-06T17:57:24.308Z,100248.15
2022-12-06T17:59:52.401Z,100251.41
2022-12-06T18:02:21.239Z,100257.57
2022-12-06T18:04:49.262Z,100257.52
2022-12-06T18:07:17.588Z,100262.09
2022-12-06T18:09:45.785Z,100257.38
2022-12-06T18:12:15.373Z,100258.20
2022-12-06T18:14:43.989Z,100253.71
2022-12-06T18:17:11.828Z,100249.25
2022-12-06T18:19:39.482Z,100249.30
2022-12-06T18:22:07.095Z,100254.23
2022-12-06T18:24:36.230Z,100256.41
2022-12-06T18:27:05.855Z,100254.67
2022-12-06T18:29:34.505Z,100252.16
2022-12-06T18:32:02.522Z,100248.09
2022-12-06T18:34:30.488Z,100249.05
2022-12-06T18:37:01.705Z,100238.84
2022-12-06T18:39:31.304Z,100243.73
2022-12-06T18:41:59.423Z,100249.85
2022-12-06T18:44:27.032Z,100248.48
2022-12-06T18:46:55.988Z,100240.98
2022-12-06T18:49:23.614Z,100239.73
2022-12-06T18:51:51.245Z,100244.62
2022-12-06T18:54:18.959Z,100245.89
2022-12-06T18:56:46.611Z,100243.37
2022-12-06T18:59:14.408Z,100240.31
2022-12-06T19:01:42.259Z,100244.06
2022-12-06T19:04:12.084Z,100238.52
2022-12-06T19:06:39.842Z,100242.14
2022-12-06T19:09:10.827Z,100242.27
2022-12-06T19:11:43.544Z,100239.63
2022-12-06T19:14:11.203Z,100246.28
2022-12-06T19:16:42.189Z,100248.27
2022-12-06T19:19:16.615Z,100246.09
2022-12-06T19:21:46.217Z,100246.14
2022-12-06T19:24:18.912Z,100251.83
2022-12-06T19:26:47.372Z,100250.61
2022-12-06T19:29:16.339Z,100252.56
2022-12-06T19:31:44.192Z,100252.36
2022-12-06T19:34:23.862Z,100257.45
2022-12-06T19:36:53.453Z,100254.27
2022-12-06T19:39:23.585Z,100253.61
2022-12-06T19:41:51.832Z,100248.84
2022-12-06T19:44:19.449Z,100249.27
2022-12-06T19:46:47.574Z,100251.14
2022-12-06T19:49:20.334Z,100250.96
2022-12-06T19:51:48.838Z,100249.27
2022-12-06T19:54:20.222Z,100242.08
2022-12-06T19:56:48.907Z,100249.26
2022-12-06T19:59:16.551Z,100247.34
2022-12-06T20:01:46.219Z,100245.60
2022-12-06T20:04:25.214Z,100244.92
2022-12-06T20:06:54.004Z,100246.95
2022-12-06T20:09:24.591Z,100251.23
2022-12-06T20:11:52.906Z,100252.00
2022-12-06T20:14:20.578Z,100252.96
2022-12-06T20:16:48.923Z,100253.95
2022-12-06T20:19:17.746Z,100248.35
2022-12-06T20:21:45.778Z,100251.59
2022-12-06T20:24:15.922Z,100252.25
2022-12-06T20:26:43.498Z,100249.04
2022-12-06T20:29:11.320Z,100247.06
2022-12-06T20:31:39.128Z,100238.52
2022-12-06T20:34:13.084Z,100238.92
2022-12-06T20:36:42.515Z,100233.98
2022-12-06T20:39:18.338Z,100237.71
2022-12-06T20:41:45.943Z,100235.39
2022-12-06T20:44:14.358Z,100232.69
2022-12-06T20:46:42.030Z,100237.09
2022-12-06T20:49:09.959Z,100240.27
2022-12-06T20:51:37.672Z,100235.31
2022-12-06T20:54:07.039Z,100240.83
2022-12-06T20:56:37.551Z,100240.44
2022-12-06T20:59:07.384Z,100241.36
2022-12-06T21:01:38.797Z,100235.09
2022-12-06T21:04:07.532Z,100240.40
2022-12-06T21:06:35.112Z,100243.95
2022-12-06T21:09:03.576Z,100243.13
2022-12-06T21:11:31.213Z,100239.35
2022-12-06T21:13:58.893Z,100244.17
2022-12-06T21:16:29.727Z,100242.50
2022-12-06T21:19:00.564Z,100243.28
2022-12-06T21:21:30.845Z,100238.80
2022-12-06T21:23:59.760Z,100246.52
2022-12-06T21:26:29.150Z,100250.33
2022-12-06T21:28:56.781Z,100252.38
2022-12-06T21:31:30.171Z,100252.40
2022-12-06T21:33:58.332Z,100260.86
2022-12-06T21:36:25.992Z,100265.06
2022-12-06T21:38:54.187Z,100264.48
2022-12-06T21:41:22.020Z,100270.30
2022-12-06T21:43:50.053Z,100268.22
2022-12-06T21:46:20.601Z,100271.16
2022-12-06T21:48:56.307Z,100271.04
2022-12-06T21:51:26.624Z,100273.29
2022-12-06T21:53:54.813Z,100271.05
2022-12-06T21:56:27.600Z,100269.69
2022-12-06T21:58:55.750Z,100264.34
2022-12-06T22:01:25.607Z,100258.90
2022-12-06T22:03:55.423Z,100261.58
2022-12-06T22:06:23.120Z,100260.55
2022-12-06T22:08:57.288Z,100252.70
2022-12-06T22:11:25.183Z,100255.77
2022-12-06T22:13:52.810Z,100256.40
2022-12-06T22:16:20.462Z,100259.44
2022-12-06T22:18:48.092Z,100262.13
2022-12-06T22:21:20.548Z,100261.27
2022-12-06T22:23:48.713Z,100258.42
2022-12-06T22:26:19.030Z,100256.98
2022-12-06T22:28:47.304Z,100256.40
2022-12-06T22:31:21.498Z,100257.30
2022-12-06T22:33:50.355Z,100247.70
2022-12-06T22:36:19.622Z,100252.12
2022-12-06T22:38:52.241Z,100250.64
2022-12-06T22:41:20.788Z,100249.40
2022-12-06T22:43:55.193Z,100245.77
2022-12-06T22:46:23.635Z,100244.45
2022-12-06T22:48:51.886Z,100242.80
2022-12-06T22:51:22.528Z,100237.52
2022-12-06T22:53:55.659Z,100235.16
2022-12-06T22:56:26.672Z,100236.24
2022-12-06T22:58:55.580Z,100236.33
2022-12-06T23:01:25.969Z,100232.97
2022-12-06T23:03:54.955Z,100237.36
2022-12-06T23:06:25.005Z,100228.48
2022-12-06T23:08:53.725Z,100223.73
2022-12-06T23:11:39.131Z,100225.91
2022-12-06T23:14:06.710Z,100224.05
2022-12-06T23:16:34.859Z,100223.90
2022-12-06T23:19:03.659Z,100219.21
2022-12-06T23:21:33.665Z,100218.31
2022-12-06T23:24:04.518Z,100217.22
2022-12-06T23:26:38.375Z,100216.52
2022-12-06T23:29:06.680Z,100218.48
2022-12-06T23:31:37.280Z,100217.01
2022-12-06T23:34:16.774Z,100207.83
2022-12-06T23:36:44.707Z,100203.55
2022-12-06T23:39:12.471Z,100198.64
2022-12-06T23:41:40.213Z,100188.16
2022-12-06T23:44:08.118Z,100184.92
2022-12-06T23:46:38.495Z,100179.73
2022-12-06T23:49:07.727Z,100178.10
2022-12-06T23:51:38.202Z,100185.84
2022-12-06T23:54:07.661Z,100208.86
2022-12-06T23:56:38.331Z,100221.17
2022-12-06T23:59:07.664Z,100225.04
